AirNav   TITAN Aviation Fuels
 
 1516 users online  

AZ50 Triangle Airpark
White Hills, Arizona, USA

GOING TO WHITE HILLS?


FAA INFORMATION EFFECTIVE 16 JUNE 2022

Location

FAA Identifier: AZ50
Lat/Long: 35-42-59.0000N 114-28-48.0000W
35-42.983333N 114-28.800000W
35.7163889,-114.4800000
(estimated)
Elevation: 2460 ft. / 750 m (estimated)
Variation: 14E (1985)
From city: 5 miles SW of WHITE HILLS, AZ
Time zone: UTC -7 (year round; does not observe DST)
Zip code: 86441

Airport Operations

Airport use: Private use. Permission required prior to landing
Activation date: 07/1982
Control tower: no
ARTCC: LOS ANGELES CENTER
FSS: PRESCOTT FLIGHT SERVICE STATION
Attendance: CONTINUOUS
Wind indicator: yes
Segmented circle: no

Airport Services

Runway Information

Runway 17/35

Dimensions: 3900 x 50 ft. / 1189 x 15 m
Surface: asphalt
Runway edge markings: RYS 17 & 35 THLDS MARKED WITH ORANGE CONES.
RUNWAY 17  RUNWAY 35
Traffic pattern: leftleft
Obstructions: nonepline

Runway 8/26

Dimensions: 1844 x 50 ft. / 562 x 15 m
Surface: dirt
Runway edge markings: RYS 08 & 26 THLDS MARKED WITH ORANGE CONES.
RUNWAY 8  RUNWAY 26
Traffic pattern: leftleft
Obstructions: nonepline

Airport Ownership and Management from official FAA records

Ownership: Privately-owned
Owner: TRIANGLE AIRPARK PROPERTY OWNERS
1834 HWY 95
BULLHEAD CITY, AZ 86442
Phone 928-763-7368
Manager: TRIANGLE AIRPARK PROPERTY OWNERS
1834 HWY 95
BULLHEAD CITY, AZ 86442
Phone 928-763-7368

Airport Operational Statistics

Aircraft based on the field: 17
Single engine airplanes: 10
Multi engine airplanes: 3
Gliders airplanes: 3
Ultralights: 1
    

Additional Remarks

FOR CD CTC LOS ANGELES ARTCC AT 661-575-2079.

Instrument Procedures

There are no published instrument procedures at AZ50.

Some nearby airports with instrument procedures:

KBVU - Boulder City Municipal Airport (23 nm NW)
KIFP - Laughlin/Bullhead International Airport (34 nm S)
KHND - Henderson Executive Airport (35 nm NW)
KIGM - Kingman Airport (38 nm SE)
KLAS - Harry Reid International Airport (39 nm NW)
 
Loc | Ops | Rwys | IFR | FBO | Links
Com | Nav | Svcs | Stats | Notes
Area around AZ50 (Triangle Airpark)
 
Road maps at: MapQuest Bing Google
 
Aerial photo
WARNING: Photo may not be current or correct
Aerial photo of AZ50 (Triangle Airpark)
Do you have a better or more recent aerial photo of Triangle Airpark that you would like to share? If so, please send us your photo.

 
Sectional chart

 
Airport distance calculator
Flying to Triangle Airpark? Find the distance to fly.

From to AZ50

Sunrise and sunset
Times for 29-Jun-2022
 Local
(UTC-7)
 Zulu
(UTC)
Morning civil twilight04:5611:56
Sunrise05:2612:26
Sunset19:5702:57
Evening civil twilight20:2703:27

Current date and time
Zulu (UTC)  29-Jun-2022 17:16:29
Local (UTC-7)  29-Jun-2022 10:16:29
 
METAR
KBVU 
23nm NW 
291655Z AUTO 15012KT 10SM CLR 38/06 A2998 RMK AO2
KHND 
36nm NW 
291656Z 18008KT 10SM CLR 37/05 A3002 RMK AO2 SLP146 T03720050
KIFP 
38nm S 
291652Z 23008KT 10SM CLR 39/12 A2989
KIGM 
39nm SE 
291651Z AUTO 24010G19KT 10SM CLR 35/10 A3012 RMK AO2 SLP118 T03500100
KLAS 
39nm NW 
291656Z 16010G17KT 10SM FEW130 38/04 A2998 RMK AO2 SLP116 T03780044
KLSV 
40nm NW 
291658Z AUTO 19011G17KT 10SM CLR 40/05 A2994 RMK AO2 SLPNO T04000052 $
KVGT 
45nm NW 
291653Z 14010KT 10SM CLR 39/04 A2996 RMK AO2 SLP126 T03890044
TAF
KHND 
36nm NW 
291125Z 2912/3012 20009KT P6SM FEW120 SCT250 FM291700 20016G27KT P6SM SCT120 BKN250 FM300400 20010KT P6SM FEW120
KIFP 
38nm S 
291125Z 2912/3012 VRB05KT P6SM SCT150 FM291800 19014G22KT P6SM SCT140 FM300100 14020G30KT P6SM SCT120 FM300600 19012KT P6SM FEW120
KLAS 
39nm NW 
291601Z 2916/3018 16010G18KT P6SM FEW120 FM291900 20016G25KT P6SM SCT120 FM300400 23010KT P6SM FEW120 FM300900 20008KT P6SM FEW120
KLSV 
40nm NW 
291500Z 2915/3021 33010KT 9999 FEW160 QNH2992INS BECMG 2919/2920 20015G25KT 9999 FEW150 520009 QNH2978INS TEMPO 2921/3004 VRB20G30KT VCTS SCT150CB BECMG 3004/3005 24012G18KT 9999 FEW150 SCT250 QNH2985INS BECMG 3017/3018 21015G25KT 9999 SKC 520009 QNH2982INS TX45/2923Z TN28/3012Z
NOTAMs
Click for the latest NOTAMs
NOTAMs are issued by the DoD/FAA and will open in a separate window not controlled by AirNav.

 

 
 

Would you like to see your business listed on this page?

 If your business provides an interesting product or service to pilots, flight crews, aircraft, or users of the Triangle Airpark, you should consider listing it here.  To start the listing process, click on the button below
 
Add a business
 

Other Pages about Triangle Airpark

Update a link
 
Copyright © AirNav, LLC. All rights reserved. Privacy Policy  Contact